Time;durP1;ratioP1;P1;durP2;ratioP2;P2;SDS_P1;SDS_P2;PMS_P1;PMS_P2;Temp;Humidity;BMP_temperature;BMP_pressure;BME280_temperature;BME280_humidity;BME280_pressure;Samples;Min_cycle;Max_cycle;Signal;HPM_P1;HPM_P2
2023/08/13 00:01:53;;;;;;;12.33;11.23;;;18.80;99.90;;;18.64;100.00;98212.50;4933640;29;20547;-68
2023/08/13 00:04:20;;;;;;;12.43;11.20;;;18.70;99.90;;;18.50;100.00;98209.41;4943476;29;20519;-68
2023/08/13 00:06:47;;;;;;;12.80;11.50;;;18.60;99.90;;;18.54;100.00;98188.63;4936533;28;20456;-70
2023/08/13 00:09:16;;;;;;;12.80;11.50;;;18.60;99.90;;;18.66;100.00;98205.69;4945789;29;20799;-69
2023/08/13 00:11:43;;;;;;;12.80;11.70;;;18.70;99.90;;;18.58;100.00;98206.19;4935529;28;20511;-69
2023/08/13 00:14:10;;;;;;;12.90;11.70;;;18.70;99.90;;;18.61;100.00;98208.41;4944450;29;20463;-69
2023/08/13 00:16:37;;;;;;;13.20;11.90;;;18.70;99.90;;;18.53;100.00;98206.97;4943532;29;20460;-70
2023/08/13 00:19:06;;;;;;;12.70;11.60;;;18.60;99.90;;;18.52;100.00;98199.03;4952556;28;20455;-68
2023/08/13 00:21:33;;;;;;;12.67;11.57;;;18.60;99.90;;;18.58;100.00;98202.63;4933789;29;20459;-69
2023/08/13 00:24:00;;;;;;;15.90;12.63;;;18.60;99.90;;;18.48;100.00;98203.38;4934160;29;20458;-68
2023/08/13 00:26:29;;;;;;;13.70;12.33;;;18.60;99.90;;;18.44;100.00;98203.06;4949221;28;20510;-69
2023/08/13 00:28:56;;;;;;;13.13;11.97;;;18.50;99.90;;;18.58;100.00;98208.94;4933964;29;21924;-68
2023/08/13 00:31:23;;;;;;;12.77;11.67;;;18.60;99.90;;;18.50;100.00;98203.94;4935356;29;20576;-68
2023/08/13 00:33:51;;;;;;;13.03;12.00;;;18.60;99.90;;;18.47;100.00;98212.69;4933695;29;20554;-68
2023/08/13 00:36:18;;;;;;;14.57;11.77;;;18.50;99.90;;;18.50;100.00;98204.78;4933896;29;20477;-69
2023/08/13 00:38:45;;;;;;;12.40;11.33;;;18.50;99.90;;;18.36;100.00;98212.59;4941771;29;20459;-69
2023/08/13 00:41:12;;;;;;;13.00;11.80;;;18.50;99.90;;;18.52;100.00;98209.97;4933164;29;20942;-67
2023/08/13 00:43:41;;;;;;;12.87;11.67;;;18.50;99.90;;;18.47;100.00;98218.16;4933676;29;20491;-70
2023/08/13 00:46:09;;;;;;;12.80;11.70;;;18.50;99.90;;;18.57;100.00;98211.91;4948627;28;20494;-68
2023/08/13 00:48:40;;;;;;;13.47;12.20;;;18.60;99.90;;;18.54;100.00;98219.56;4963289;28;20450;-73
2023/08/13 00:51:08;;;;;;;12.87;11.67;;;18.50;99.90;;;18.44;100.00;98222.22;4933048;29;20555;-70
2023/08/13 00:53:45;;;;;;;13.40;12.17;;;18.50;99.90;;;18.26;100.00;98207.03;4948214;28;20451;-68
2023/08/13 00:56:14;;;;;;;13.30;12.20;;;18.40;99.90;;;18.30;100.00;98208.19;4948200;29;20553;-69
2023/08/13 00:58:43;;;;;;;12.67;11.57;;;18.40;99.90;;;18.26;100.00;98217.97;4941322;29;20466;-68
2023/08/13 01:01:11;;;;;;;13.07;11.97;;;18.30;99.90;;;18.01;100.00;98194.78;4947482;28;20457;-70
2023/08/13 01:03:38;;;;;;;13.23;12.03;;;18.30;99.90;;;18.27;100.00;98223.19;4935944;29;20534;-69
2023/08/13 01:06:14;;;;;;;14.27;13.07;;;18.30;99.90;;;18.24;100.00;98220.97;4952482;29;20938;-68
2023/08/13 01:09:00;;;;;;;12.80;11.60;;;18.30;99.90;;;18.21;100.00;98221.50;4933472;29;20462;-69
2023/08/13 01:11:38;;;;;;;12.70;11.60;;;18.30;99.90;;;18.22;100.00;98214.13;4932434;29;20487;-69
2023/08/13 01:14:13;;;;;;;13.23;12.03;;;18.30;99.90;;;18.39;100.00;98216.72;4935224;29;20461;-68
2023/08/13 01:16:42;;;;;;;13.50;12.30;;;18.40;99.90;;;18.33;100.00;98217.75;4949394;28;20457;-68
2023/08/13 01:19:13;;;;;;;14.20;13.00;;;18.40;99.90;;;18.26;100.00;98224.28;4940893;29;20465;-68
2023/08/13 01:21:40;;;;;;;14.70;13.20;;;18.30;99.90;;;18.18;100.00;98218.47;4945679;29;20447;-69
2023/08/13 01:24:09;;;;;;;13.20;12.00;;;18.20;99.90;;;18.26;100.00;98228.91;4933486;29;20470;-69
2023/08/13 01:26:49;;;;;;;12.40;11.23;;;18.30;99.90;;;18.34;100.00;98225.72;4935028;29;20462;-71
2023/08/13 01:29:28;;;;;;;13.37;12.07;;;18.40;99.90;;;18.33;100.00;98224.06;4945044;29;21140;-68
2023/08/13 01:32:00;;;;;;;13.73;12.60;;;18.40;99.90;;;18.26;100.00;98226.16;4931184;29;20881;-68
2023/08/13 01:34:28;;;;;;;14.10;12.60;;;18.40;99.90;;;18.27;100.00;98225.09;4934482;29;20857;-68
2023/08/13 01:36:56;;;;;;;14.13;12.73;;;18.40;99.90;;;18.21;100.00;98232.44;4948416;29;20466;-68
2023/08/13 01:39:24;;;;;;;13.77;12.47;;;18.40;99.90;;;18.21;100.00;98223.41;4934477;29;20522;-69
2023/08/13 01:41:54;;;;;;;13.17;12.07;;;18.30;99.90;;;18.19;100.00;98217.38;4947363;28;20865;-68
2023/08/13 01:44:22;;;;;;;13.33;12.20;;;18.30;99.90;;;18.19;100.00;98225.56;4952131;28;20456;-68
2023/08/13 01:46:49;;;;;;;13.47;11.63;;;18.40;99.90;;;18.12;100.00;98206.66;4950912;29;20447;-70
2023/08/13 01:49:19;;;;;;;14.00;12.63;;;18.30;99.90;;;18.12;100.00;98223.06;4939060;29;20552;-68
2023/08/13 01:51:46;;;;;;;13.50;12.37;;;18.30;99.90;;;18.05;100.00;98217.81;4932328;29;20485;-68
2023/08/13 01:54:14;;;;;;;13.73;12.33;;;18.30;99.90;;;18.05;100.00;98217.81;4935658;29;20544;-69
2023/08/13 01:56:42;;;;;;;13.33;12.03;;;18.20;99.90;;;18.00;100.00;98225.94;4951233;28;20520;-70
2023/08/13 01:59:09;;;;;;;13.33;12.10;;;18.20;99.90;;;17.61;100.00;98168.72;4937396;29;20455;-67
2023/08/13 02:01:37;;;;;;;11.90;10.80;;;18.20;99.90;;;18.00;100.00;98220.47;4942658;28;20460;-69
2023/08/13 02:04:05;;;;;;;12.87;11.70;;;18.10;99.90;;;17.98;100.00;98225.38;4943267;29;21013;-69
2023/08/13 02:06:35;;;;;;;13.67;11.33;;;18.10;99.90;;;17.90;100.00;98234.88;4940625;28;20476;-68
2023/08/13 02:09:02;;;;;;;13.00;11.77;;;18.10;99.90;;;17.84;100.00;98223.06;4951362;28;20445;-68
2023/08/13 02:11:30;;;;;;;12.80;11.70;;;18.10;99.90;;;17.87;100.00;98221.69;4935493;29;20488;-69
2023/08/13 02:13:58;;;;;;;12.57;11.57;;;18.00;99.90;;;17.83;100.00;98218.69;4945229;28;20462;-68
2023/08/13 02:16:26;;;;;;;12.47;11.37;;;18.00;99.90;;;17.73;100.00;98225.91;4945600;29;20472;-70
2023/08/13 02:18:53;;;;;;;12.47;11.10;;;17.90;99.90;;;17.66;100.00;98231.59;4950899;29;20456;-69
2023/08/13 02:21:21;;;;;;;12.17;10.97;;;17.80;99.90;;;17.77;100.00;98214.22;4950827;29;20512;-68
2023/08/13 02:23:48;;;;;;;13.10;11.90;;;17.80;99.90;;;17.75;100.00;98223.78;4969567;28;20453;-68
2023/08/13 02:26:15;;;;;;;12.43;11.33;;;17.80;99.90;;;17.68;100.00;98224.00;4950419;29;20465;-69
2023/08/13 02:28:45;;;;;;;12.97;11.80;;;17.80;99.90;;;17.67;100.00;98222.34;4953052;28;20511;-68
2023/08/13 02:31:13;;;;;;;12.57;11.47;;;17.80;99.90;;;17.68;100.00;98224.00;4935671;29;20468;-68
2023/08/13 02:33:41;;;;;;;12.77;11.63;;;17.80;99.90;;;18.01;100.00;98211.19;4936218;29;20528;-67
2023/08/13 02:36:08;;;;;;;13.90;12.60;;;17.80;99.90;;;18.05;100.00;98211.53;4944624;29;20965;-71
2023/08/13 02:38:35;;;;;;;13.40;12.20;;;17.80;99.90;;;17.79;100.00;98209.31;4954469;28;20464;-68
2023/08/13 02:41:02;;;;;;;12.70;11.60;;;17.80;99.90;;;17.98;100.00;98217.19;4937785;29;20511;-69
2023/08/13 02:43:35;;;;;;;14.80;13.20;;;17.80;99.90;;;18.07;100.00;98221.09;4940440;29;20461;-68
2023/08/13 02:46:02;;;;;;;12.60;11.50;;;17.90;99.90;;;18.08;100.00;98225.47;4941038;29;20547;-68
2023/08/13 02:48:30;;;;;;;13.03;11.60;;;17.80;99.90;;;17.70;100.00;98224.56;4938776;28;20450;-69
2023/08/13 02:50:57;;;;;;;12.20;11.10;;;17.80;99.90;;;17.62;100.00;98225.00;4937932;29;20469;-68
2023/08/13 02:53:24;;;;;;;13.13;11.83;;;17.80;99.90;;;17.65;100.00;98229.94;4958493;28;20476;-69
2023/08/13 02:55:52;;;;;;;13.80;12.60;;;17.80;99.90;;;17.63;100.00;98227.47;4943754;29;20490;-68
2023/08/13 02:58:19;;;;;;;12.63;11.43;;;17.80;99.90;;;17.62;100.00;98220.38;4946555;29;20498;-68
2023/08/13 03:00:46;;;;;;;15.57;12.50;;;17.80;99.90;;;17.54;100.00;98218.91;4949015;28;20509;-68
2023/08/13 03:03:13;;;;;;;12.47;11.27;;;17.80;99.90;;;17.48;100.00;98228.13;4956670;28;20440;-69
2023/08/13 03:05:42;;;;;;;11.50;10.40;;;17.70;99.90;;;17.46;100.00;98224.00;4951859;29;20460;-70
2023/08/13 03:08:09;;;;;;;13.00;11.90;;;17.60;99.90;;;17.45;100.00;98225.91;4942208;29;20563;-70
2023/08/13 03:10:36;;;;;;;13.37;12.07;;;17.60;99.90;;;17.16;100.00;98178.88;4935204;29;20466;-68
2023/08/13 03:13:04;;;;;;;11.63;10.43;;;17.60;99.90;;;17.41;100.00;98222.84;4934830;29;20490;-67
2023/08/13 03:15:31;;;;;;;12.77;11.57;;;17.60;99.90;;;17.36;100.00;98221.97;4943867;29;20472;-69
2023/08/13 03:17:58;;;;;;;12.97;11.60;;;17.60;99.90;;;17.32;100.00;98210.75;4946722;28;20469;-67
2023/08/13 03:20:25;;;;;;;12.20;11.00;;;17.60;99.90;;;17.30;100.00;98214.81;4942548;28;20509;-67
2023/08/13 03:22:54;;;;;;;11.47;10.50;;;17.60;99.90;;;17.24;100.00;98220.22;4962945;28;20465;-69
2023/08/13 03:25:21;;;;;;;12.53;11.20;;;17.50;99.90;;;17.19;100.00;98222.06;4954411;29;20519;-67
2023/08/13 03:27:49;;;;;;;12.27;11.00;;;17.50;99.90;;;17.19;100.00;98211.94;4952872;28;20449;-70
2023/08/13 03:30:16;;;;;;;12.70;11.60;;;17.40;99.90;;;17.11;100.00;98218.66;4949269;29;20466;-67
2023/08/13 03:32:43;;;;;;;11.60;10.50;;;17.40;99.90;;;17.07;100.00;98217.53;4934252;29;20484;-68
2023/08/13 03:35:11;;;;;;;11.63;10.53;;;17.40;99.90;;;17.07;100.00;98214.00;4950245;28;20469;-67
2023/08/13 03:37:38;;;;;;;11.37;10.33;;;17.30;99.90;;;17.04;100.00;98211.75;4938006;29;20461;-68
2023/08/13 03:40:09;;;;;;;12.73;11.40;;;17.30;99.90;;;17.10;100.00;98208.84;4935087;29;21031;-70
2023/08/13 03:42:36;;;;;;;11.10;10.10;;;17.30;99.90;;;16.74;100.00;98156.50;4946245;29;20458;-67
2023/08/13 03:45:03;;;;;;;13.23;11.13;;;17.30;99.90;;;16.91;100.00;98197.38;4934796;29;20465;-67
2023/08/13 03:47:30;;;;;;;13.37;10.40;;;17.30;99.90;;;16.98;100.00;98217.13;4934932;29;20460;-70
2023/08/13 03:49:58;;;;;;;12.43;11.40;;;17.30;99.90;;;16.97;100.00;98220.94;4951254;28;20452;-68
2023/08/13 03:52:25;;;;;;;11.43;10.33;;;17.20;99.90;;;16.98;100.00;98214.38;4941272;29;20993;-67
2023/08/13 03:54:52;;;;;;;10.83;9.93;;;17.20;99.90;;;17.02;100.00;98219.38;4953472;28;20952;-67
2023/08/13 03:57:21;;;;;;;13.60;11.03;;;17.20;99.90;;;17.06;100.00;98225.97;4948266;28;20526;-67
2023/08/13 03:59:48;;;;;;;14.60;11.17;;;17.20;99.90;;;16.99;100.00;98212.53;4950483;29;20453;-69
2023/08/13 04:02:15;;;;;;;12.17;11.00;;;17.20;99.90;;;16.97;100.00;98218.19;4933706;29;20996;-68
2023/08/13 04:04:42;;;;;;;11.20;10.10;;;17.20;99.90;;;16.88;100.00;98222.44;4938687;29;20467;-68
2023/08/13 04:07:09;;;;;;;11.47;10.37;;;17.20;99.90;;;16.95;100.00;98211.34;4946129;29;20468;-67
2023/08/13 04:09:37;;;;;;;11.70;10.40;;;17.20;99.90;;;17.08;100.00;98221.09;4938195;28;20466;-67
2023/08/13 04:12:04;;;;;;;10.90;10.00;;;17.30;99.90;;;17.40;100.00;98229.41;4939860;29;21027;-68
2023/08/13 04:14:33;;;;;;;11.50;10.50;;;17.30;99.90;;;17.68;100.00;98218.53;4942472;29;20953;-67
2023/08/13 04:17:00;;;;;;;12.23;11.03;;;17.40;99.90;;;17.59;100.00;98220.88;4956917;28;20534;-67
2023/08/13 04:19:27;;;;;;;12.33;11.13;;;17.30;99.90;;;17.66;100.00;98218.75;4939275;28;20462;-68
2023/08/13 04:21:55;;;;;;;11.60;9.97;;;17.40;99.90;;;17.74;100.00;98222.94;4950057;28;20515;-68
2023/08/13 04:24:22;;;;;;;10.70;9.70;;;17.40;99.90;;;16.88;100.00;98158.84;4939123;29;20521;-67
2023/08/13 04:26:49;;;;;;;11.70;10.67;;;17.40;99.90;;;17.24;100.00;98214.75;4949657;28;20455;-69
2023/08/13 04:29:16;;;;;;;10.73;9.67;;;17.40;99.90;;;17.25;100.00;98227.31;4951301;29;20461;-69
2023/08/13 04:31:45;;;;;;;11.87;10.90;;;17.50;99.90;;;17.20;100.00;98224.50;4950159;29;20450;-67
2023/08/13 04:34:12;;;;;;;10.87;9.97;;;17.50;99.90;;;17.30;100.00;98236.66;4933696;29;20544;-68
2023/08/13 04:36:40;;;;;;;12.47;10.03;;;17.50;99.90;;;17.41;100.00;98238.44;4935267;29;20875;-70
2023/08/13 04:39:07;;;;;;;11.93;10.83;;;17.60;99.90;;;17.79;100.00;98242.13;4933923;29;20524;-68
2023/08/13 04:41:35;;;;;;;15.30;11.13;;;17.90;99.90;;;18.04;100.00;98240.75;4932963;29;20469;-68
2023/08/13 04:44:02;;;;;;;11.33;10.33;;;18.20;99.90;;;18.10;100.00;98228.78;4932386;29;20945;-67
2023/08/13 04:46:29;;;;;;;12.47;11.30;;;18.40;99.90;;;18.17;100.00;98225.03;4943109;29;20860;-67
2023/08/13 04:48:58;;;;;;;11.03;9.93;;;18.50;99.90;;;18.22;100.00;98227.78;4939099;29;20474;-69
2023/08/13 04:51:25;;;;;;;10.80;9.80;;;18.50;99.90;;;18.09;100.00;98249.00;4942969;28;20455;-68
2023/08/13 04:53:53;;;;;;;10.00;9.00;;;18.50;99.90;;;18.01;100.00;98238.53;4943385;29;21002;-68
2023/08/13 04:56:20;;;;;;;11.63;9.00;;;18.40;99.90;;;17.86;100.00;98241.91;4933570;29;20875;-68
2023/08/13 04:58:47;;;;;;;9.80;8.83;;;18.30;99.90;;;18.12;100.00;98234.00;4933703;29;20463;-68
2023/08/13 05:01:14;;;;;;;10.10;9.10;;;18.40;99.90;;;18.22;100.00;98233.25;4932942;29;20524;-68
2023/08/13 05:03:41;;;;;;;9.67;8.87;;;18.50;99.90;;;18.41;100.00;98226.28;4939296;29;20469;-69
2023/08/13 05:06:10;;;;;;;9.90;9.10;;;18.60;99.90;;;18.95;100.00;98229.94;4948421;28;20462;-69
2023/08/13 05:08:37;;;;;;;10.80;9.83;;;18.80;99.90;;;19.37;97.96;98230.16;4960833;28;20466;-72
2023/08/13 05:11:04;;;;;;;9.70;8.90;;;19.20;99.90;;;19.78;94.04;98229.47;4940183;29;20463;-68
2023/08/13 05:13:32;;;;;;;8.80;8.10;;;19.50;99.90;;;20.22;89.91;98241.88;4947600;28;20561;-69
2023/08/13 05:15:59;;;;;;;8.13;7.43;;;20.00;98.70;;;20.39;89.76;98238.88;4943534;29;20498;-68
2023/08/13 05:18:26;;;;;;;8.67;7.80;;;20.30;97.30;;;20.78;86.42;98243.78;4953000;28;20455;-68
2023/08/13 05:20:53;;;;;;;8.07;7.37;;;20.60;96.00;;;21.05;85.39;98236.34;4950910;28;20457;-69
2023/08/13 05:23:22;;;;;;;8.57;7.13;;;21.10;94.70;;;21.02;84.78;98236.91;4942630;29;20452;-69
2023/08/13 05:25:49;;;;;;;9.13;8.03;;;21.10;94.40;;;20.77;86.08;98249.56;4933373;29;20538;-70
2023/08/13 05:28:17;;;;;;;7.80;7.20;;;20.80;94.90;;;20.32;88.01;98244.63;4933720;29;20450;-71
2023/08/13 05:30:44;;;;;;;8.73;8.03;;;20.50;95.20;;;20.21;88.79;98251.22;4933147;29;20452;-74
2023/08/13 05:33:11;;;;;;;9.07;7.30;;;20.20;96.50;;;20.15;90.20;98233.94;4951946;28;20892;-69
2023/08/13 05:35:39;;;;;;;8.50;7.70;;;20.00;97.60;;;19.94;92.04;98227.59;4938731;29;20450;-68
2023/08/13 05:38:06;;;;;;;8.40;7.70;;;19.90;98.60;;;20.06;91.52;98236.38;4943757;29;20459;-70
2023/08/13 05:40:36;;;;;;;8.80;8.00;;;19.90;98.90;;;19.69;92.01;98229.19;4935848;29;20454;-68
2023/08/13 05:43:03;;;;;;;8.87;8.17;;;19.80;98.50;;;19.45;94.74;98224.16;4950993;28;20453;-69
2023/08/13 05:45:31;;;;;;;8.50;7.80;;;19.60;99.90;;;19.78;93.07;98241.25;4944999;29;20516;-69
2023/08/13 05:47:58;;;;;;;8.13;7.20;;;19.70;99.90;;;20.17;90.50;98241.88;4944246;29;20518;-69
2023/08/13 05:50:25;;;;;;;8.73;7.80;;;19.80;99.60;;;20.04;91.09;98238.59;4942443;29;20461;-67
2023/08/13 05:52:52;;;;;;;7.43;6.83;;;19.80;99.20;;;20.35;89.50;98241.34;4946920;29;20473;-68
2023/08/13 05:55:19;;;;;;;8.33;7.67;;;19.90;99.00;;;20.47;88.91;98243.00;4951093;28;20453;-68
2023/08/13 05:57:47;;;;;;;10.53;7.10;;;20.20;97.90;;;20.66;87.86;98238.56;4936801;29;20473;-68
2023/08/13 06:00:16;;;;;;;7.73;6.80;;;20.40;97.10;;;21.00;85.54;98228.94;4935840;29;20881;-69
2023/08/13 06:02:43;;;;;;;6.90;6.30;;;20.70;96.40;;;21.34;83.88;98238.44;4936042;29;20462;-66
2023/08/13 06:05:11;;;;;;;7.67;6.37;;;20.90;95.80;;;21.39;83.24;98235.66;4948738;29;20473;-68
2023/08/13 06:07:38;;;;;;;8.17;7.47;;;21.10;95.00;;;20.91;85.83;98228.69;4951308;29;20545;-68
2023/08/13 06:10:06;;;;;;;8.20;7.60;;;20.80;95.30;;;20.81;86.11;98236.94;4943307;29;20917;-69
2023/08/13 06:12:34;;;;;;;8.40;7.60;;;20.70;95.60;;;20.77;86.30;98238.56;4952259;29;20471;-69
2023/08/13 06:15:04;;;;;;;7.10;6.40;;;20.70;95.70;;;20.83;86.74;98229.25;4954201;29;20882;-68
2023/08/13 06:17:31;;;;;;;9.63;7.20;;;20.60;96.40;;;20.95;85.76;98235.25;4941067;28;20456;-68
2023/08/13 06:20:00;;;;;;;8.10;7.30;;;20.70;96.30;;;20.85;86.13;98234.47;4947856;29;20524;-70
2023/08/13 06:22:27;;;;;;;7.63;6.93;;;20.60;96.10;;;21.00;85.69;98226.19;4954133;29;20461;-69
2023/08/13 06:24:54;;;;;;;7.30;6.50;;;20.70;96.00;;;20.98;86.02;98227.56;4945694;29;20531;-68
2023/08/13 06:27:22;;;;;;;14.33;7.10;;;20.80;96.00;;;21.23;84.81;98229.44;4944637;29;20492;-69
2023/08/13 06:29:49;;;;;;;7.90;7.20;;;21.00;95.60;;;21.57;83.68;98233.38;4939963;29;20462;-71
2023/08/13 06:32:17;;;;;;;7.87;6.60;;;21.10;95.20;;;21.98;80.75;98238.69;4946556;28;20446;-70
2023/08/13 06:34:44;;;;;;;7.93;6.97;;;21.40;94.60;;;21.55;80.93;98208.09;4938846;29;20478;-69
2023/08/13 06:37:11;;;;;;;7.00;6.33;;;21.60;94.00;;;22.10;80.02;98245.75;4936215;29;20480;-70
2023/08/13 06:39:39;;;;;;;9.43;6.47;;;21.60;93.90;;;22.27;78.85;98246.19;4936709;29;20991;-67
2023/08/13 06:42:06;;;;;;;6.83;6.17;;;21.80;93.70;;;22.32;78.82;98265.38;4943623;28;20470;-68
2023/08/13 06:44:33;;;;;;;6.90;6.30;;;21.90;93.50;;;22.17;79.34;98254.50;4947134;28;20952;-68
2023/08/13 06:47:00;;;;;;;6.80;6.20;;;22.00;93.20;;;22.67;77.82;98246.13;4950937;28;20455;-68
2023/08/13 06:49:29;;;;;;;5.73;5.20;;;22.30;93.10;;;23.05;75.78;98248.25;4950839;28;20447;-69
2023/08/13 06:51:56;;;;;;;6.00;5.47;;;22.60;92.60;;;22.97;75.53;98246.13;4941495;29;20509;-68
2023/08/13 06:54:23;;;;;;;5.77;5.27;;;22.70;92.20;;;22.97;74.71;98235.94;4944512;29;20471;-70
2023/08/13 06:56:50;;;;;;;5.53;5.03;;;22.80;91.80;;;22.75;75.34;98233.69;4935685;29;20529;-67
2023/08/13 06:59:18;;;;;;;5.20;4.80;;;22.80;91.80;;;22.77;75.40;98234.19;4936484;29;20455;-68
2023/08/13 07:01:45;;;;;;;5.37;4.30;;;22.70;91.80;;;23.04;74.35;98219.06;4945312;29;20793;-67
2023/08/13 07:04:12;;;;;;;5.20;4.77;;;22.80;91.70;;;23.32;73.09;98225.63;4939271;29;20529;-70
2023/08/13 07:06:41;;;;;;;7.00;4.90;;;22.90;91.70;;;23.50;72.07;98231.47;4949991;29;20465;-68
2023/08/13 07:09:08;;;;;;;5.80;5.30;;;23.10;91.50;;;23.06;73.36;98231.44;4953668;29;20456;-72
2023/08/13 07:11:36;;;;;;;4.83;4.43;;;23.00;91.20;;;23.15;72.66;98230.78;4938774;28;20541;-68
2023/08/13 07:14:04;;;;;;;6.40;4.90;;;23.00;91.10;;;23.06;73.65;98227.84;4937371;29;21002;-68
2023/08/13 07:16:31;;;;;;;4.37;4.07;;;22.90;91.20;;;23.59;71.62;98226.94;4938935;28;20912;-68
2023/08/13 07:18:59;;;;;;;4.90;4.50;;;23.10;91.30;;;24.12;69.38;98236.16;4951335;29;20458;-68
2023/08/13 07:21:26;;;;;;;4.57;4.17;;;23.50;90.90;;;23.90;69.76;98236.75;4952870;29;20979;-69
2023/08/13 07:23:55;;;;;;;4.90;4.40;;;23.50;90.60;;;23.75;69.74;98233.09;4944455;29;20478;-70
2023/08/13 07:26:23;;;;;;;6.40;3.83;;;23.60;90.60;;;23.76;69.47;98236.63;4946873;28;20458;-69
2023/08/13 07:28:50;;;;;;;4.40;4.10;;;23.70;90.30;;;23.57;71.46;98242.13;4937605;29;20608;-68
2023/08/13 07:31:20;;;;;;;4.03;3.73;;;23.40;90.60;;;24.37;68.43;98247.09;4964954;28;21014;-70
2023/08/13 07:33:47;;;;;;;4.13;3.80;;;23.90;90.30;;;24.84;65.72;98245.19;4937187;29;20487;-70
2023/08/13 07:36:14;;;;;;;3.73;3.43;;;24.40;89.80;;;25.34;63.98;98232.63;4965030;28;20449;-70
2023/08/13 07:38:42;;;;;;;3.53;3.23;;;24.80;88.80;;;25.16;64.46;98240.72;4947219;28;20519;-70
2023/08/13 07:41:10;;;;;;;3.80;3.50;;;25.00;88.50;;;25.11;64.15;98242.75;4968446;28;21005;-70
2023/08/13 07:43:37;;;;;;;3.93;3.10;;;25.00;87.60;;;25.48;63.20;98245.63;4947095;28;20459;-68
2023/08/13 07:46:04;;;;;;;2.60;2.40;;;25.10;87.50;;;25.04;64.11;98240.41;4954292;28;20513;-69
2023/08/13 07:48:32;;;;;;;2.63;2.43;;;25.00;87.30;;;25.20;62.17;98243.69;4940007;29;20465;-68
2023/08/13 07:50:59;;;;;;;3.83;2.23;;;25.00;86.50;;;24.75;62.64;98246.97;4942242;29;20947;-68
2023/08/13 07:53:29;;;;;;;1.90;1.80;;;24.80;85.90;;;25.51;61.04;98245.03;4947764;29;20474;-69
2023/08/13 07:55:56;;;;;;;2.87;2.57;;;25.00;86.00;;;25.88;59.56;98248.66;4940473;28;20496;-68
2023/08/13 07:58:25;;;;;;;3.90;2.50;;;25.40;85.10;;;26.24;59.17;98247.03;4955101;28;21087;-69
2023/08/13 08:00:52;;;;;;;2.70;2.47;;;25.70;85.00;;;26.11;59.46;98252.28;4934954;29;20460;-68
2023/08/13 08:03:19;;;;;;;2.03;1.90;;;25.70;84.80;;;26.37;57.41;98253.66;4939605;29;20517;-71
2023/08/13 08:05:48;;;;;;;2.70;2.50;;;25.80;83.30;;;26.41;57.48;98238.03;4937364;29;20467;-68
2023/08/13 08:08:15;;;;;;;2.20;2.10;;;25.90;83.20;;;25.65;58.38;98187.75;4945881;28;20467;-71
2023/08/13 08:10:42;;;;;;;2.63;2.43;;;25.80;83.10;;;25.80;59.14;98254.94;4945810;28;20465;-70
2023/08/13 08:13:09;;;;;;;2.60;2.40;;;25.50;83.50;;;25.96;59.61;98242.38;4951450;29;20557;-71
2023/08/13 08:15:37;;;;;;;2.87;2.20;;;25.50;83.80;;;25.85;59.49;98238.19;4945427;28;20460;-70
2023/08/13 08:18:05;;;;;;;2.80;2.60;;;25.50;83.50;;;25.38;61.44;98238.38;4949059;28;20457;-69
2023/08/13 08:20:33;;;;;;;2.70;2.50;;;25.40;84.00;;;25.07;62.40;98239.78;4937473;29;20476;-68
2023/08/13 08:23:00;;;;;;;2.80;2.60;;;25.10;84.30;;;25.45;62.35;98242.34;4937990;29;20472;-68
2023/08/13 08:25:28;;;;;;;2.60;2.40;;;25.20;85.10;;;25.45;61.98;98242.34;4954768;28;20468;-71
2023/08/13 08:27:55;;;;;;;3.00;2.80;;;25.20;84.70;;;25.34;62.16;98246.44;4948666;29;20942;-69
2023/08/13 08:30:22;;;;;;;2.63;2.43;;;25.20;84.70;;;25.28;62.05;98242.97;4948654;28;20452;-69
2023/08/13 08:32:50;;;;;;;4.03;2.57;;;25.00;84.90;;;24.77;63.25;98241.19;4933312;29;20457;-69
2023/08/13 08:35:18;;;;;;;3.40;3.10;;;24.90;84.80;;;24.60;64.20;98246.13;4940418;29;20554;-71
2023/08/13 08:37:45;;;;;;;6.00;3.30;;;24.40;85.60;;;25.14;63.27;98251.28;4952675;28;20549;-69
2023/08/13 08:40:12;;;;;;;2.53;2.40;;;24.60;85.90;;;24.27;65.75;98243.38;4933798;29;20448;-70
2023/08/13 08:42:42;;;;;;;2.77;2.57;;;24.50;86.40;;;24.58;65.52;98259.41;4936032;29;20483;-70
2023/08/13 08:45:11;;;;;;;2.27;2.10;;;24.50;86.40;;;24.73;63.51;98261.13;4934436;29;20469;-68
2023/08/13 08:47:41;;;;;;;3.13;2.23;;;24.60;85.50;;;25.21;61.76;98261.09;4932593;29;20865;-69
2023/08/13 08:50:13;;;;;;;2.80;2.60;;;25.00;85.10;;;25.50;61.49;98254.47;4942369;29;20470;-69
2023/08/13 08:52:41;;;;;;;3.00;2.80;;;25.30;84.70;;;25.56;61.95;98265.09;4947188;29;21003;-71
2023/08/13 08:55:11;;;;;;;4.53;3.33;;;25.50;84.70;;;25.58;61.61;98268.38;4941337;28;20556;-71
2023/08/13 08:57:39;;;;;;;4.10;3.50;;;25.50;84.70;;;25.29;62.77;98260.38;4933566;29;20983;-70
2023/08/13 09:00:08;;;;;;;3.90;3.47;;;25.40;84.90;;;24.79;64.83;98275.66;4939771;29;21107;-72
2023/08/13 09:02:38;;;;;;;3.50;3.20;;;25.00;85.40;;;24.29;66.50;98268.72;4937058;29;20557;-69
2023/08/13 09:05:07;;;;;;;3.37;3.17;;;24.60;86.10;;;24.37;66.54;98260.91;4932331;29;20520;-69
2023/08/13 09:07:36;;;;;;;3.70;3.40;;;24.60;86.60;;;23.93;68.17;98260.97;4955112;28;21005;-67
2023/08/13 09:10:07;;;;;;;4.30;3.90;;;24.30;86.80;;;23.84;70.87;98251.69;4941724;28;20520;-68
2023/08/13 09:12:36;;;;;;;3.63;3.20;;;24.00;88.50;;;24.33;67.59;98250.44;4932296;29;20523;-72
2023/08/13 09:15:08;;;;;;;4.03;3.70;;;24.10;87.60;;;24.73;66.52;98246.47;4935038;29;20478;-68
2023/08/13 09:17:35;;;;;;;4.33;3.93;;;24.50;87.80;;;24.22;68.74;98250.91;4943567;29;20867;-68
2023/08/13 09:20:10;;;;;;;3.80;3.50;;;24.40;87.80;;;24.79;67.01;98244.47;4941260;28;20475;-68
2023/08/13 09:22:40;;;;;;;4.70;3.33;;;24.70;87.70;;;25.57;63.48;98224.44;4932708;29;20943;-69
2023/08/13 09:25:10;;;;;;;5.43;3.90;;;25.30;86.60;;;25.25;63.93;98217.88;4941472;29;20476;-70
2023/08/13 09:27:37;;;;;;;3.30;3.10;;;25.40;85.80;;;24.96;65.39;98219.03;4933520;29;20455;-69
2023/08/13 09:30:11;;;;;;;3.73;3.43;;;25.10;86.20;;;24.95;64.86;98220.16;4947655;28;20470;-71
2023/08/13 09:32:38;;;;;;;3.20;2.90;;;25.20;86.20;;;24.98;64.61;98225.06;4947766;29;20460;-68
2023/08/13 09:35:06;;;;;;;4.30;2.90;;;25.20;85.90;;;25.48;62.82;98224.38;4944213;29;20997;-70
2023/08/13 09:37:33;;;;;;;3.23;3.03;;;25.30;85.70;;;25.34;62.36;98218.78;4940106;29;20483;-70
2023/08/13 09:40:02;;;;;;;3.07;2.87;;;25.50;84.90;;;25.56;61.59;98229.16;4963801;28;20894;-66
2023/08/13 09:42:33;;;;;;;3.13;2.47;;;25.50;84.70;;;25.49;61.35;98227.94;4938556;29;20459;-69
2023/08/13 09:45:02;;;;;;;2.70;2.50;;;25.50;84.40;;;24.99;63.02;98226.69;4948208;29;20461;-69
2023/08/13 09:47:34;;;;;;;2.80;2.60;;;25.30;84.30;;;24.54;64.79;98224.41;4946744;28;20453;-68
2023/08/13 09:50:04;;;;;;;3.73;2.70;;;24.90;85.00;;;24.53;65.34;98239.34;4939475;29;20461;-68
2023/08/13 09:52:32;;;;;;;2.80;2.60;;;24.70;85.60;;;24.56;65.61;98227.69;4944434;29;20553;-67
2023/08/13 09:55:12;;;;;;;2.80;2.40;;;24.70;85.90;;;24.69;64.92;98226.91;4949672;28;20515;-69
2023/08/13 09:57:43;;;;;;;3.00;2.80;;;24.80;86.10;;;24.26;66.88;98225.16;4948681;28;20852;-70
2023/08/13 10:00:13;;;;;;;2.90;2.70;;;24.60;86.30;;;24.76;65.89;98223.78;4932911;29;20456;-68
2023/08/13 10:02:41;;;;;;;3.60;3.30;;;24.80;86.70;;;24.27;67.66;98232.31;4947469;28;20459;-68
2023/08/13 10:05:09;;;;;;;3.57;3.30;;;24.50;87.10;;;24.79;66.25;98216.84;4944649;29;20564;-69
2023/08/13 10:07:37;;;;;;;3.70;3.10;;;24.80;86.90;;;25.20;65.28;98212.47;4949666;28;20453;-69
2023/08/13 10:10:07;;;;;;;3.43;3.23;;;25.10;86.70;;;24.93;66.16;98220.44;4949039;28;20512;-69
2023/08/13 10:12:34;;;;;;;3.47;3.20;;;25.20;86.40;;;24.88;65.89;98190.97;4946443;28;20454;-70
2023/08/13 10:15:02;;;;;;;3.73;3.30;;;25.30;86.20;;;25.43;63.82;98213.34;4934536;29;20559;-69